sensor_id;sensor_type;location;lat;lon;timestamp;temperature;humidity
85702;DHT22;76139;50.888;3.882;2024-02-26T00:01:31;9.10;76.30
85702;DHT22;76139;50.888;3.882;2024-02-26T00:03:58;9.10;76.20
85702;DHT22;76139;50.888;3.882;2024-02-26T00:06:25;9.10;76.20
85702;DHT22;76139;50.888;3.882;2024-02-26T00:08:51;9.10;76.70
85702;DHT22;76139;50.888;3.882;2024-02-26T00:11:16;9.10;76.10
85702;DHT22;76139;50.888;3.882;2024-02-26T00:13:42;9.10;76.30
85702;DHT22;76139;50.888;3.882;2024-02-26T00:16:08;9.00;76.80
85702;DHT22;76139;50.888;3.882;2024-02-26T00:18:34;9.00;76.70
85702;DHT22;76139;50.888;3.882;2024-02-26T00:20:59;9.10;76.20
85702;DHT22;76139;50.888;3.882;2024-02-26T00:23:26;9.10;76.00
85702;DHT22;76139;50.888;3.882;2024-02-26T00:25:53;9.00;76.70
85702;DHT22;76139;50.888;3.882;2024-02-26T00:28:18;9.00;76.90
85702;DHT22;76139;50.888;3.882;2024-02-26T00:30:46;8.90;77.10
85702;DHT22;76139;50.888;3.882;2024-02-26T00:33:11;9.00;77.00
85702;DHT22;76139;50.888;3.882;2024-02-26T00:35:37;8.90;77.40
85702;DHT22;76139;50.888;3.882;2024-02-26T00:38:03;8.80;77.20
85702;DHT22;76139;50.888;3.882;2024-02-26T00:40:29;8.90;77.40
85702;DHT22;76139;50.888;3.882;2024-02-26T00:42:58;8.80;77.90
85702;DHT22;76139;50.888;3.882;2024-02-26T00:45:24;8.70;78.10
85702;DHT22;76139;50.888;3.882;2024-02-26T00:47:50;8.70;78.30
85702;DHT22;76139;50.888;3.882;2024-02-26T00:50:15;8.70;78.20
85702;DHT22;76139;50.888;3.882;2024-02-26T00:52:41;8.70;78.30
85702;DHT22;76139;50.888;3.882;2024-02-26T00:55:07;8.70;78.50
85702;DHT22;76139;50.888;3.882;2024-02-26T00:57:33;8.70;78.30
85702;DHT22;76139;50.888;3.882;2024-02-26T00:59:59;8.80;78.40
85702;DHT22;76139;50.888;3.882;2024-02-26T01:02:26;8.90;77.80
85702;DHT22;76139;50.888;3.882;2024-02-26T01:04:52;8.80;78.50
85702;DHT22;76139;50.888;3.882;2024-02-26T01:07:18;8.80;78.80
85702;DHT22;76139;50.888;3.882;2024-02-26T01:09:44;8.70;79.10
85702;DHT22;76139;50.888;3.882;2024-02-26T01:12:10;8.70;78.80
85702;DHT22;76139;50.888;3.882;2024-02-26T01:14:35;8.70;78.80
85702;DHT22;76139;50.888;3.882;2024-02-26T01:17:01;8.70;79.20
85702;DHT22;76139;50.888;3.882;2024-02-26T01:19:28;8.80;79.10
85702;DHT22;76139;50.888;3.882;2024-02-26T01:21:53;8.70;79.10
85702;DHT22;76139;50.888;3.882;2024-02-26T01:24:19;8.60;79.10
85702;DHT22;76139;50.888;3.882;2024-02-26T01:26:45;8.60;79.00
85702;DHT22;76139;50.888;3.882;2024-02-26T01:29:12;8.70;79.30
85702;DHT22;76139;50.888;3.882;2024-02-26T01:31:37;8.60;79.10
85702;DHT22;76139;50.888;3.882;2024-02-26T01:34:04;8.70;79.50
85702;DHT22;76139;50.888;3.882;2024-02-26T01:36:29;8.70;79.00
85702;DHT22;76139;50.888;3.882;2024-02-26T01:38:55;8.70;78.70
85702;DHT22;76139;50.888;3.882;2024-02-26T01:41:21;8.70;78.60
85702;DHT22;76139;50.888;3.882;2024-02-26T01:43:46;8.60;79.00
85702;DHT22;76139;50.888;3.882;2024-02-26T01:46:14;8.60;79.40
85702;DHT22;76139;50.888;3.882;2024-02-26T01:48:43;8.60;79.30
85702;DHT22;76139;50.888;3.882;2024-02-26T01:51:10;8.60;79.20
85702;DHT22;76139;50.888;3.882;2024-02-26T01:53:38;8.50;79.30
85702;DHT22;76139;50.888;3.882;2024-02-26T01:56:04;8.50;80.10
85702;DHT22;76139;50.888;3.882;2024-02-26T01:58:30;8.60;79.40
85702;DHT22;76139;50.888;3.882;2024-02-26T02:00:57;8.50;79.40
85702;DHT22;76139;50.888;3.882;2024-02-26T02:03:24;8.60;79.30
85702;DHT22;76139;50.888;3.882;2024-02-26T02:05:50;8.50;79.50
85702;DHT22;76139;50.888;3.882;2024-02-26T02:08:15;8.50;79.90
85702;DHT22;76139;50.888;3.882;2024-02-26T02:10:42;8.50;79.60
85702;DHT22;76139;50.888;3.882;2024-02-26T02:13:08;8.50;80.90
85702;DHT22;76139;50.888;3.882;2024-02-26T02:15:33;8.50;79.60
85702;DHT22;76139;50.888;3.882;2024-02-26T02:17:59;8.60;79.10
85702;DHT22;76139;50.888;3.882;2024-02-26T02:20:31;8.60;79.10
85702;DHT22;76139;50.888;3.882;2024-02-26T02:22:58;8.60;79.40
85702;DHT22;76139;50.888;3.882;2024-02-26T02:25:23;8.50;79.60
85702;DHT22;76139;50.888;3.882;2024-02-26T02:27:49;8.50;80.00
85702;DHT22;76139;50.888;3.882;2024-02-26T02:30:15;8.60;79.30
85702;DHT22;76139;50.888;3.882;2024-02-26T02:32:42;8.70;78.80
85702;DHT22;76139;50.888;3.882;2024-02-26T02:35:08;8.50;78.80
85702;DHT22;76139;50.888;3.882;2024-02-26T02:37:34;8.50;79.00
85702;DHT22;76139;50.888;3.882;2024-02-26T02:40:00;8.50;79.70
85702;DHT22;76139;50.888;3.882;2024-02-26T02:42:26;8.50;79.80
85702;DHT22;76139;50.888;3.882;2024-02-26T02:44:52;8.50;79.40
85702;DHT22;76139;50.888;3.882;2024-02-26T02:47:17;8.60;79.00
85702;DHT22;76139;50.888;3.882;2024-02-26T02:49:43;8.60;78.80
85702;DHT22;76139;50.888;3.882;2024-02-26T02:52:09;8.60;78.70
85702;DHT22;76139;50.888;3.882;2024-02-26T02:54:35;8.50;79.20
85702;DHT22;76139;50.888;3.882;2024-02-26T02:57:02;8.50;79.30
85702;DHT22;76139;50.888;3.882;2024-02-26T02:59:28;8.60;79.20
85702;DHT22;76139;50.888;3.882;2024-02-26T03:01:54;8.70;79.00
85702;DHT22;76139;50.888;3.882;2024-02-26T03:04:20;8.70;78.90
85702;DHT22;76139;50.888;3.882;2024-02-26T03:06:45;8.70;78.50
85702;DHT22;76139;50.888;3.882;2024-02-26T03:09:11;8.60;78.80
85702;DHT22;76139;50.888;3.882;2024-02-26T03:11:37;8.60;79.10
85702;DHT22;76139;50.888;3.882;2024-02-26T03:14:02;8.70;78.70
85702;DHT22;76139;50.888;3.882;2024-02-26T03:16:29;8.70;78.80
85702;DHT22;76139;50.888;3.882;2024-02-26T03:18:55;8.70;78.80
85702;DHT22;76139;50.888;3.882;2024-02-26T03:21:21;8.70;78.70
85702;DHT22;76139;50.888;3.882;2024-02-26T03:23:47;8.70;78.60
85702;DHT22;76139;50.888;3.882;2024-02-26T03:26:12;8.70;78.60
85702;DHT22;76139;50.888;3.882;2024-02-26T03:28:40;8.70;78.50
85702;DHT22;76139;50.888;3.882;2024-02-26T03:31:06;8.80;78.50
85702;DHT22;76139;50.888;3.882;2024-02-26T03:33:32;8.70;78.90
85702;DHT22;76139;50.888;3.882;2024-02-26T03:35:57;8.60;78.80
85702;DHT22;76139;50.888;3.882;2024-02-26T03:38:23;8.70;78.80
85702;DHT22;76139;50.888;3.882;2024-02-26T03:40:49;8.60;78.70
85702;DHT22;76139;50.888;3.882;2024-02-26T03:43:14;8.60;79.10
85702;DHT22;76139;50.888;3.882;2024-02-26T03:45:40;8.50;79.00
85702;DHT22;76139;50.888;3.882;2024-02-26T03:48:06;8.50;79.20
85702;DHT22;76139;50.888;3.882;2024-02-26T03:50:32;8.40;79.60
85702;DHT22;76139;50.888;3.882;2024-02-26T03:52:58;8.30;80.20
85702;DHT22;76139;50.888;3.882;2024-02-26T03:55:24;8.40;80.20
85702;DHT22;76139;50.888;3.882;2024-02-26T03:57:52;8.40;80.00
85702;DHT22;76139;50.888;3.882;2024-02-26T04:00:19;8.40;80.10
85702;DHT22;76139;50.888;3.882;2024-02-26T04:02:46;8.40;80.50
85702;DHT22;76139;50.888;3.882;2024-02-26T04:05:12;8.40;80.30
85702;DHT22;76139;50.888;3.882;2024-02-26T04:07:39;8.50;80.00
85702;DHT22;76139;50.888;3.882;2024-02-26T04:10:09;8.50;79.40
85702;DHT22;76139;50.888;3.882;2024-02-26T04:12:35;8.40;79.50
85702;DHT22;76139;50.888;3.882;2024-02-26T04:15:00;8.40;79.70
85702;DHT22;76139;50.888;3.882;2024-02-26T04:17:26;8.40;79.70
85702;DHT22;76139;50.888;3.882;2024-02-26T04:19:52;8.40;80.10
85702;DHT22;76139;50.888;3.882;2024-02-26T04:22:17;8.40;80.10
85702;DHT22;76139;50.888;3.882;2024-02-26T04:24:43;8.40;79.80
85702;DHT22;76139;50.888;3.882;2024-02-26T04:27:09;8.50;79.90
85702;DHT22;76139;50.888;3.882;2024-02-26T04:29:34;8.40;79.50
85702;DHT22;76139;50.888;3.882;2024-02-26T04:32:00;8.40;79.60
85702;DHT22;76139;50.888;3.882;2024-02-26T04:34:25;8.40;79.80
85702;DHT22;76139;50.888;3.882;2024-02-26T04:36:51;8.40;79.80
85702;DHT22;76139;50.888;3.882;2024-02-26T04:39:17;8.50;79.80
85702;DHT22;76139;50.888;3.882;2024-02-26T04:41:43;8.50;79.00
85702;DHT22;76139;50.888;3.882;2024-02-26T04:44:08;8.40;79.20
85702;DHT22;76139;50.888;3.882;2024-02-26T04:46:34;8.50;79.00
85702;DHT22;76139;50.888;3.882;2024-02-26T04:49:00;8.40;79.20
85702;DHT22;76139;50.888;3.882;2024-02-26T04:51:25;8.40;79.30
85702;DHT22;76139;50.888;3.882;2024-02-26T04:53:51;8.40;79.50
85702;DHT22;76139;50.888;3.882;2024-02-26T04:56:21;8.50;79.30
85702;DHT22;76139;50.888;3.882;2024-02-26T04:58:46;8.50;79.40
85702;DHT22;76139;50.888;3.882;2024-02-26T05:01:12;8.40;79.40
85702;DHT22;76139;50.888;3.882;2024-02-26T05:03:37;8.40;79.60
85702;DHT22;76139;50.888;3.882;2024-02-26T05:06:04;8.40;79.90
85702;DHT22;76139;50.888;3.882;2024-02-26T05:08:30;8.40;79.50
85702;DHT22;76139;50.888;3.882;2024-02-26T05:10:56;8.40;79.40
85702;DHT22;76139;50.888;3.882;2024-02-26T05:13:22;8.50;79.40
85702;DHT22;76139;50.888;3.882;2024-02-26T05:15:48;8.40;79.60
85702;DHT22;76139;50.888;3.882;2024-02-26T05:18:15;8.50;79.30
85702;DHT22;76139;50.888;3.882;2024-02-26T05:20:41;8.50;79.50
85702;DHT22;76139;50.888;3.882;2024-02-26T05:23:07;8.50;79.00
85702;DHT22;76139;50.888;3.882;2024-02-26T05:25:32;8.50;79.00
85702;DHT22;76139;50.888;3.882;2024-02-26T05:27:58;8.50;79.30
85702;DHT22;76139;50.888;3.882;2024-02-26T05:30:24;8.50;79.40
85702;DHT22;76139;50.888;3.882;2024-02-26T05:32:49;8.50;79.30
85702;DHT22;76139;50.888;3.882;2024-02-26T05:35:15;8.50;78.90
85702;DHT22;76139;50.888;3.882;2024-02-26T05:37:41;8.50;78.90
85702;DHT22;76139;50.888;3.882;2024-02-26T05:40:07;8.50;79.00
85702;DHT22;76139;50.888;3.882;2024-02-26T05:42:32;8.60;79.00
85702;DHT22;76139;50.888;3.882;2024-02-26T05:44:59;8.50;78.90
85702;DHT22;76139;50.888;3.882;2024-02-26T05:47:24;8.50;79.00
85702;DHT22;76139;50.888;3.882;2024-02-26T05:49:50;8.50;79.20
85702;DHT22;76139;50.888;3.882;2024-02-26T05:52:15;8.50;79.30
85702;DHT22;76139;50.888;3.882;2024-02-26T05:54:41;8.50;79.50
85702;DHT22;76139;50.888;3.882;2024-02-26T05:57:07;8.40;79.70
85702;DHT22;76139;50.888;3.882;2024-02-26T05:59:32;8.50;79.60
85702;DHT22;76139;50.888;3.882;2024-02-26T06:01:58;8.50;79.50
85702;DHT22;76139;50.888;3.882;2024-02-26T06:04:24;8.50;79.70
85702;DHT22;76139;50.888;3.882;2024-02-26T06:06:49;8.50;79.70
85702;DHT22;76139;50.888;3.882;2024-02-26T06:09:15;8.40;79.90
85702;DHT22;76139;50.888;3.882;2024-02-26T06:11:41;8.40;80.00
85702;DHT22;76139;50.888;3.882;2024-02-26T06:14:07;8.50;80.30
85702;DHT22;76139;50.888;3.882;2024-02-26T06:16:32;8.50;79.80
85702;DHT22;76139;50.888;3.882;2024-02-26T06:18:59;8.60;79.30
85702;DHT22;76139;50.888;3.882;2024-02-26T06:21:25;8.50;79.50
85702;DHT22;76139;50.888;3.882;2024-02-26T06:23:51;8.50;80.00
85702;DHT22;76139;50.888;3.882;2024-02-26T06:26:17;8.50;79.70
85702;DHT22;76139;50.888;3.882;2024-02-26T06:28:43;8.60;78.80
85702;DHT22;76139;50.888;3.882;2024-02-26T06:31:09;8.50;79.20
85702;DHT22;76139;50.888;3.882;2024-02-26T06:33:34;8.50;79.20
85702;DHT22;76139;50.888;3.882;2024-02-26T06:36:00;8.40;79.10
85702;DHT22;76139;50.888;3.882;2024-02-26T06:38:26;8.40;79.60
85702;DHT22;76139;50.888;3.882;2024-02-26T06:40:51;8.40;79.30
85702;DHT22;76139;50.888;3.882;2024-02-26T06:43:17;8.40;79.50
85702;DHT22;76139;50.888;3.882;2024-02-26T06:45:43;8.40;79.30
85702;DHT22;76139;50.888;3.882;2024-02-26T06:48:08;8.40;79.50
85702;DHT22;76139;50.888;3.882;2024-02-26T06:50:34;8.40;79.30
85702;DHT22;76139;50.888;3.882;2024-02-26T06:53:00;8.50;78.70
85702;DHT22;76139;50.888;3.882;2024-02-26T06:55:26;8.40;78.70
85702;DHT22;76139;50.888;3.882;2024-02-26T06:57:52;8.50;78.80
85702;DHT22;76139;50.888;3.882;2024-02-26T07:00:18;8.50;79.20
85702;DHT22;76139;50.888;3.882;2024-02-26T07:02:43;8.50;79.00
85702;DHT22;76139;50.888;3.882;2024-02-26T07:05:09;8.40;79.00
85702;DHT22;76139;50.888;3.882;2024-02-26T07:07:35;8.50;79.20
85702;DHT22;76139;50.888;3.882;2024-02-26T07:10:01;8.40;79.50
85702;DHT22;76139;50.888;3.882;2024-02-26T07:12:30;8.40;79.50
85702;DHT22;76139;50.888;3.882;2024-02-26T07:14:55;8.50;79.20
85702;DHT22;76139;50.888;3.882;2024-02-26T07:17:21;8.50;79.70
85702;DHT22;76139;50.888;3.882;2024-02-26T07:19:47;8.50;79.50
85702;DHT22;76139;50.888;3.882;2024-02-26T07:22:12;8.50;79.70
85702;DHT22;76139;50.888;3.882;2024-02-26T07:24:39;8.50;79.40
85702;DHT22;76139;50.888;3.882;2024-02-26T07:27:04;8.50;79.40
85702;DHT22;76139;50.888;3.882;2024-02-26T07:29:30;8.50;79.50
85702;DHT22;76139;50.888;3.882;2024-02-26T07:31:58;8.40;79.50
85702;DHT22;76139;50.888;3.882;2024-02-26T07:34:23;8.40;79.90
85702;DHT22;76139;50.888;3.882;2024-02-26T07:36:53;8.30;80.20
85702;DHT22;76139;50.888;3.882;2024-02-26T07:39:19;8.40;80.50
85702;DHT22;76139;50.888;3.882;2024-02-26T07:41:45;8.40;80.00
85702;DHT22;76139;50.888;3.882;2024-02-26T07:44:14;8.30;80.60
85702;DHT22;76139;50.888;3.882;2024-02-26T07:46:39;8.30;80.50
85702;DHT22;76139;50.888;3.882;2024-02-26T07:49:05;8.20;81.00
85702;DHT22;76139;50.888;3.882;2024-02-26T07:51:30;8.20;80.80
85702;DHT22;76139;50.888;3.882;2024-02-26T07:53:56;8.30;80.60
85702;DHT22;76139;50.888;3.882;2024-02-26T07:56:22;8.20;80.50
85702;DHT22;76139;50.888;3.882;2024-02-26T07:58:48;8.20;80.90
85702;DHT22;76139;50.888;3.882;2024-02-26T08:01:14;8.10;81.10
85702;DHT22;76139;50.888;3.882;2024-02-26T08:03:40;8.10;81.50
85702;DHT22;76139;50.888;3.882;2024-02-26T08:06:08;8.10;81.60
85702;DHT22;76139;50.888;3.882;2024-02-26T08:08:34;8.20;81.10
85702;DHT22;76139;50.888;3.882;2024-02-26T08:11:00;8.20;80.70
85702;DHT22;76139;50.888;3.882;2024-02-26T08:13:26;8.30;80.80
85702;DHT22;76139;50.888;3.882;2024-02-26T08:15:52;8.10;80.60
85702;DHT22;76139;50.888;3.882;2024-02-26T08:18:18;8.20;81.10
85702;DHT22;76139;50.888;3.882;2024-02-26T08:20:44;8.30;80.50
85702;DHT22;76139;50.888;3.882;2024-02-26T08:23:10;8.30;80.10
85702;DHT22;76139;50.888;3.882;2024-02-26T08:25:39;8.30;80.30
85702;DHT22;76139;50.888;3.882;2024-02-26T08:28:05;8.20;80.60
85702;DHT22;76139;50.888;3.882;2024-02-26T08:30:31;8.30;80.40
85702;DHT22;76139;50.888;3.882;2024-02-26T08:32:56;8.10;80.30
85702;DHT22;76139;50.888;3.882;2024-02-26T08:35:22;8.20;80.50
85702;DHT22;76139;50.888;3.882;2024-02-26T08:37:48;8.30;79.90
85702;DHT22;76139;50.888;3.882;2024-02-26T08:40:14;8.30;80.00
85702;DHT22;76139;50.888;3.882;2024-02-26T08:42:40;8.20;80.30
85702;DHT22;76139;50.888;3.882;2024-02-26T08:45:07;8.30;79.70
85702;DHT22;76139;50.888;3.882;2024-02-26T08:47:32;8.30;79.70
85702;DHT22;76139;50.888;3.882;2024-02-26T08:49:58;8.30;79.70
85702;DHT22;76139;50.888;3.882;2024-02-26T08:52:24;8.20;79.80
85702;DHT22;76139;50.888;3.882;2024-02-26T08:54:51;8.30;79.60
85702;DHT22;76139;50.888;3.882;2024-02-26T08:57:16;8.20;79.80
85702;DHT22;76139;50.888;3.882;2024-02-26T08:59:42;8.30;79.40
85702;DHT22;76139;50.888;3.882;2024-02-26T09:02:08;8.20;79.40
85702;DHT22;76139;50.888;3.882;2024-02-26T09:04:35;8.30;79.30
85702;DHT22;76139;50.888;3.882;2024-02-26T09:07:01;8.30;79.00
85702;DHT22;76139;50.888;3.882;2024-02-26T09:09:27;8.30;79.00
85702;DHT22;76139;50.888;3.882;2024-02-26T09:11:53;8.50;78.60
85702;DHT22;76139;50.888;3.882;2024-02-26T09:14:21;8.50;78.40
85702;DHT22;76139;50.888;3.882;2024-02-26T09:16:46;8.40;78.60
85702;DHT22;76139;50.888;3.882;2024-02-26T09:19:14;8.50;77.60
85702;DHT22;76139;50.888;3.882;2024-02-26T09:21:46;8.50;78.00
85702;DHT22;76139;50.888;3.882;2024-02-26T09:24:12;8.40;78.10
85702;DHT22;76139;50.888;3.882;2024-02-26T09:26:38;8.40;78.00
85702;DHT22;76139;50.888;3.882;2024-02-26T09:29:04;8.30;78.40
85702;DHT22;76139;50.888;3.882;2024-02-26T09:31:31;8.30;78.80
85702;DHT22;76139;50.888;3.882;2024-02-26T09:33:56;8.40;78.60
85702;DHT22;76139;50.888;3.882;2024-02-26T09:36:22;8.40;78.10
85702;DHT22;76139;50.888;3.882;2024-02-26T09:38:48;8.40;78.10
85702;DHT22;76139;50.888;3.882;2024-02-26T09:41:16;8.50;78.20
85702;DHT22;76139;50.888;3.882;2024-02-26T09:43:44;8.50;77.90
85702;DHT22;76139;50.888;3.882;2024-02-26T09:46:13;8.50;78.10
85702;DHT22;76139;50.888;3.882;2024-02-26T09:48:42;8.50;78.50
85702;DHT22;76139;50.888;3.882;2024-02-26T09:51:09;8.50;78.40
85702;DHT22;76139;50.888;3.882;2024-02-26T09:53:36;8.50;78.60
85702;DHT22;76139;50.888;3.882;2024-02-26T09:56:06;8.40;78.30
85702;DHT22;76139;50.888;3.882;2024-02-26T09:58:33;8.50;78.20
85702;DHT22;76139;50.888;3.882;2024-02-26T10:01:02;8.40;78.60
85702;DHT22;76139;50.888;3.882;2024-02-26T10:03:38;8.40;78.80
85702;DHT22;76139;50.888;3.882;2024-02-26T10:06:04;8.40;78.40
85702;DHT22;76139;50.888;3.882;2024-02-26T10:08:31;8.50;78.20
85702;DHT22;76139;50.888;3.882;2024-02-26T10:10:58;8.40;78.40
85702;DHT22;76139;50.888;3.882;2024-02-26T10:13:23;8.50;79.40
85702;DHT22;76139;50.888;3.882;2024-02-26T10:15:49;8.50;78.10
85702;DHT22;76139;50.888;3.882;2024-02-26T10:18:15;8.50;77.90
85702;DHT22;76139;50.888;3.882;2024-02-26T10:20:41;8.50;78.40
85702;DHT22;76139;50.888;3.882;2024-02-26T10:23:06;8.40;78.20
85702;DHT22;76139;50.888;3.882;2024-02-26T10:25:32;8.40;78.60
85702;DHT22;76139;50.888;3.882;2024-02-26T10:28:01;8.30;78.70
85702;DHT22;76139;50.888;3.882;2024-02-26T10:30:28;8.30;78.50
85702;DHT22;76139;50.888;3.882;2024-02-26T10:32:55;8.30;78.50
85702;DHT22;76139;50.888;3.882;2024-02-26T10:35:21;8.30;78.70
85702;DHT22;76139;50.888;3.882;2024-02-26T10:37:47;8.40;78.70
85702;DHT22;76139;50.888;3.882;2024-02-26T10:40:14;8.50;78.20
85702;DHT22;76139;50.888;3.882;2024-02-26T10:42:41;8.60;77.80
85702;DHT22;76139;50.888;3.882;2024-02-26T10:45:08;8.40;77.20
85702;DHT22;76139;50.888;3.882;2024-02-26T10:47:37;8.40;78.10
85702;DHT22;76139;50.888;3.882;2024-02-26T10:50:04;8.40;78.00
85702;DHT22;76139;50.888;3.882;2024-02-26T10:52:32;8.30;78.20
85702;DHT22;76139;50.888;3.882;2024-02-26T10:55:05;8.40;77.90
85702;DHT22;76139;50.888;3.882;2024-02-26T10:57:41;8.40;77.80
85702;DHT22;76139;50.888;3.882;2024-02-26T11:00:13;8.40;78.40
85702;DHT22;76139;50.888;3.882;2024-02-26T11:02:40;8.40;78.30
85702;DHT22;76139;50.888;3.882;2024-02-26T11:05:07;8.40;78.10
85702;DHT22;76139;50.888;3.882;2024-02-26T11:07:34;8.40;78.00
85702;DHT22;76139;50.888;3.882;2024-02-26T11:10:02;8.50;77.90
85702;DHT22;76139;50.888;3.882;2024-02-26T11:12:29;8.50;77.60
85702;DHT22;76139;50.888;3.882;2024-02-26T11:14:55;8.40;78.10
85702;DHT22;76139;50.888;3.882;2024-02-26T11:17:26;8.40;77.60
85702;DHT22;76139;50.888;3.882;2024-02-26T11:19:55;8.50;77.20
85702;DHT22;76139;50.888;3.882;2024-02-26T11:22:21;8.30;77.50
85702;DHT22;76139;50.888;3.882;2024-02-26T11:24:48;8.40;77.80
85702;DHT22;76139;50.888;3.882;2024-02-26T11:27:16;8.30;77.30
85702;DHT22;76139;50.888;3.882;2024-02-26T11:29:48;8.50;77.60
85702;DHT22;76139;50.888;3.882;2024-02-26T11:32:15;8.60;77.20
85702;DHT22;76139;50.888;3.882;2024-02-26T11:34:41;8.50;77.10
85702;DHT22;76139;50.888;3.882;2024-02-26T11:37:11;8.50;77.00
85702;DHT22;76139;50.888;3.882;2024-02-26T11:39:40;8.50;76.90
85702;DHT22;76139;50.888;3.882;2024-02-26T11:42:09;8.60;77.10
85702;DHT22;76139;50.888;3.882;2024-02-26T11:44:38;8.60;77.00
85702;DHT22;76139;50.888;3.882;2024-02-26T11:47:11;8.70;77.00
85702;DHT22;76139;50.888;3.882;2024-02-26T11:49:37;8.70;76.20
85702;DHT22;76139;50.888;3.882;2024-02-26T11:52:07;8.70;76.00
85702;DHT22;76139;50.888;3.882;2024-02-26T11:54:56;8.80;75.50
85702;DHT22;76139;50.888;3.882;2024-02-26T11:59:48;8.70;76.10
85702;DHT22;76139;50.888;3.882;2024-02-26T12:02:37;8.80;75.50
85702;DHT22;76139;50.888;3.882;2024-02-26T12:05:15;8.80;74.90
85702;DHT22;76139;50.888;3.882;2024-02-26T12:07:48;8.60;75.40
85702;DHT22;76139;50.888;3.882;2024-02-26T12:10:38;8.60;76.30
85702;DHT22;76139;50.888;3.882;2024-02-26T12:13:16;8.70;76.30
85702;DHT22;76139;50.888;3.882;2024-02-26T12:15:57;8.60;75.40
85702;DHT22;76139;50.888;3.882;2024-02-26T12:18:24;8.70;75.60
85702;DHT22;76139;50.888;3.882;2024-02-26T12:21:00;8.50;75.80
85702;DHT22;76139;50.888;3.882;2024-02-26T12:23:29;8.50;76.60
85702;DHT22;76139;50.888;3.882;2024-02-26T12:25:59;8.50;77.10
85702;DHT22;76139;50.888;3.882;2024-02-26T12:28:29;8.60;75.70
85702;DHT22;76139;50.888;3.882;2024-02-26T12:30:54;8.60;75.20
85702;DHT22;76139;50.888;3.882;2024-02-26T12:33:23;8.60;76.10
85702;DHT22;76139;50.888;3.882;2024-02-26T12:35:52;8.60;76.10
85702;DHT22;76139;50.888;3.882;2024-02-26T12:38:18;8.60;76.20
85702;DHT22;76139;50.888;3.882;2024-02-26T12:40:45;8.70;75.60
85702;DHT22;76139;50.888;3.882;2024-02-26T12:43:11;8.60;75.50
85702;DHT22;76139;50.888;3.882;2024-02-26T12:45:43;8.60;76.30
85702;DHT22;76139;50.888;3.882;2024-02-26T12:48:12;8.50;76.40
85702;DHT22;76139;50.888;3.882;2024-02-26T12:50:38;8.60;76.00
85702;DHT22;76139;50.888;3.882;2024-02-26T12:53:05;8.60;76.70
85702;DHT22;76139;50.888;3.882;2024-02-26T12:55:32;8.60;76.30
85702;DHT22;76139;50.888;3.882;2024-02-26T12:58:00;8.70;76.00
85702;DHT22;76139;50.888;3.882;2024-02-26T13:00:27;8.80;75.90
85702;DHT22;76139;50.888;3.882;2024-02-26T13:02:54;8.90;74.70
85702;DHT22;76139;50.888;3.882;2024-02-26T13:05:21;8.90;74.10
85702;DHT22;76139;50.888;3.882;2024-02-26T13:07:48;8.80;75.00
85702;DHT22;76139;50.888;3.882;2024-02-26T13:10:14;8.80;75.60
85702;DHT22;76139;50.888;3.882;2024-02-26T13:12:47;8.80;75.70
85702;DHT22;76139;50.888;3.882;2024-02-26T13:15:17;8.80;76.00
85702;DHT22;76139;50.888;3.882;2024-02-26T13:17:48;8.80;75.90
85702;DHT22;76139;50.888;3.882;2024-02-26T13:20:25;8.90;74.90
85702;DHT22;76139;50.888;3.882;2024-02-26T13:22:51;9.00;74.70
85702;DHT22;76139;50.888;3.882;2024-02-26T13:25:25;9.00;75.00
85702;DHT22;76139;50.888;3.882;2024-02-26T13:27:52;8.90;75.20
85702;DHT22;76139;50.888;3.882;2024-02-26T13:30:17;8.90;75.50
85702;DHT22;76139;50.888;3.882;2024-02-26T13:32:44;8.80;75.20
85702;DHT22;76139;50.888;3.882;2024-02-26T13:35:12;8.80;74.90
85702;DHT22;76139;50.888;3.882;2024-02-26T13:37:39;8.90;74.70
85702;DHT22;76139;50.888;3.882;2024-02-26T13:40:07;9.00;74.70
85702;DHT22;76139;50.888;3.882;2024-02-26T13:42:34;8.90;75.10
85702;DHT22;76139;50.888;3.882;2024-02-26T13:45:00;9.00;74.20
85702;DHT22;76139;50.888;3.882;2024-02-26T13:47:27;9.00;74.90
85702;DHT22;76139;50.888;3.882;2024-02-26T13:49:52;8.90;74.80
85702;DHT22;76139;50.888;3.882;2024-02-26T13:52:18;9.00;75.60
85702;DHT22;76139;50.888;3.882;2024-02-26T13:54:46;9.00;75.30
85702;DHT22;76139;50.888;3.882;2024-02-26T13:57:12;9.00;74.70
85702;DHT22;76139;50.888;3.882;2024-02-26T13:59:37;9.00;74.90
85702;DHT22;76139;50.888;3.882;2024-02-26T14:02:07;9.00;75.50
85702;DHT22;76139;50.888;3.882;2024-02-26T14:04:33;9.00;74.90
85702;DHT22;76139;50.888;3.882;2024-02-26T14:06:58;9.00;74.70
85702;DHT22;76139;50.888;3.882;2024-02-26T14:09:24;9.00;75.00
85702;DHT22;76139;50.888;3.882;2024-02-26T14:11:50;9.10;74.50
85702;DHT22;76139;50.888;3.882;2024-02-26T14:14:16;9.10;74.80
85702;DHT22;76139;50.888;3.882;2024-02-26T14:16:41;9.10;74.20
85702;DHT22;76139;50.888;3.882;2024-02-26T14:19:07;9.10;74.80
85702;DHT22;76139;50.888;3.882;2024-02-26T14:21:33;9.00;74.40
85702;DHT22;76139;50.888;3.882;2024-02-26T14:23:59;9.20;74.20
85702;DHT22;76139;50.888;3.882;2024-02-26T14:26:24;9.20;74.10
85702;DHT22;76139;50.888;3.882;2024-02-26T14:28:50;9.20;75.00
85702;DHT22;76139;50.888;3.882;2024-02-26T14:31:19;9.20;74.60
85702;DHT22;76139;50.888;3.882;2024-02-26T14:33:45;9.20;74.30
85702;DHT22;76139;50.888;3.882;2024-02-26T14:36:11;9.20;74.50
85702;DHT22;76139;50.888;3.882;2024-02-26T14:38:37;9.20;74.70
85702;DHT22;76139;50.888;3.882;2024-02-26T14:41:04;9.30;74.50
85702;DHT22;76139;50.888;3.882;2024-02-26T14:43:30;9.30;74.50
85702;DHT22;76139;50.888;3.882;2024-02-26T14:45:58;9.40;73.90
85702;DHT22;76139;50.888;3.882;2024-02-26T14:48:24;9.40;73.60
85702;DHT22;76139;50.888;3.882;2024-02-26T14:50:50;9.20;73.80
85702;DHT22;76139;50.888;3.882;2024-02-26T14:53:17;9.20;73.40
85702;DHT22;76139;50.888;3.882;2024-02-26T14:55:42;9.20;73.00
85702;DHT22;76139;50.888;3.882;2024-02-26T14:58:08;9.20;73.70
85702;DHT22;76139;50.888;3.882;2024-02-26T15:00:36;9.20;74.20
85702;DHT22;76139;50.888;3.882;2024-02-26T15:03:03;9.10;74.70
85702;DHT22;76139;50.888;3.882;2024-02-26T15:05:29;9.00;74.60
85702;DHT22;76139;50.888;3.882;2024-02-26T15:07:55;9.00;74.80
85702;DHT22;76139;50.888;3.882;2024-02-26T15:10:20;8.90;75.00
85702;DHT22;76139;50.888;3.882;2024-02-26T15:12:46;8.90;75.10
85702;DHT22;76139;50.888;3.882;2024-02-26T15:15:12;8.80;75.30
85702;DHT22;76139;50.888;3.882;2024-02-26T15:17:38;8.80;75.80
85702;DHT22;76139;50.888;3.882;2024-02-26T15:20:04;8.80;75.60
85702;DHT22;76139;50.888;3.882;2024-02-26T15:22:33;8.90;75.50
85702;DHT22;76139;50.888;3.882;2024-02-26T15:24:59;8.80;76.10
85702;DHT22;76139;50.888;3.882;2024-02-26T15:27:25;8.80;76.10
85702;DHT22;76139;50.888;3.882;2024-02-26T15:29:51;8.90;75.90
85702;DHT22;76139;50.888;3.882;2024-02-26T15:32:24;8.90;75.50
85702;DHT22;76139;50.888;3.882;2024-02-26T15:34:53;8.90;76.40
85702;DHT22;76139;50.888;3.882;2024-02-26T15:37:19;8.90;75.50
85702;DHT22;76139;50.888;3.882;2024-02-26T15:39:45;8.90;75.70
85702;DHT22;76139;50.888;3.882;2024-02-26T15:42:11;9.00;75.30
85702;DHT22;76139;50.888;3.882;2024-02-26T15:44:40;8.90;74.90